»·PEaware :: SLAG86 KONT-KONT

SLAG86 :: KONT-KONT

FLIGHT INFORMATION

Flight Status: Arrived
Operator: Unknown
More flights by this operator :: More flights under this callsign
Pilot: Anonymous 2822 (2822)
Aircraft: MITSUBISHI F-86 SABRE
(F86)
More flights by this aircraft type
Origin: KONT Ontario Intl
United States
Destination: KONT Ontario Intl
United States
More flights between these airports :: More routes between these airports
Route: KONT LCL
File this flight plan on PilotEdge
Remarks: Computer upgrade. Testing the rig. / V /
Altitude:
(Current/Filed)
2,500ft
Speed:
(Current/Filed)
250kts
Departed: 24-Mar-14 05:53 PM
Arrived: 24-Mar-14 07:05 PM
Distance/Time
Traveled:
0nm/1:11
Distance/Time
To Go:
Arrived

Flight Plot

Page will automatically refresh every two minutes.


Map Options




Map Legend


Flown Route
Filed Route
Departure Airport
Arrival Airport
Navaid (VOR, NDB)
Fix

Horizontal Profiles

Position Reports

Time Latitude Longitude Heading Altitude Ground
Speed
24-Mar-14 17:35 34.051309 -117.582333 90 949ft 0kts
24-Mar-14 17:36 34.051309 -117.582332 90 949ft 0kts
24-Mar-14 17:37 34.051309 -117.582331 90 949ft 0kts
24-Mar-14 17:38 34.051309 -117.582330 90 949ft 0kts
24-Mar-14 17:39 34.051309 -117.582330 90 949ft 0kts
24-Mar-14 17:40 34.051309 -117.582329 90 949ft 0kts
24-Mar-14 17:41 34.051309 -117.582328 90 949ft 0kts
24-Mar-14 17:42 34.051295 -117.581417 90 949ft 5kts
24-Mar-14 17:43 34.052066 -117.580988 345 949ft 4kts
24-Mar-14 17:44 34.052650 -117.582678 0 949ft 8kts
24-Mar-14 17:45 34.054217 -117.582693 358 949ft 0kts
24-Mar-14 17:46 34.055052 -117.582716 358 949ft 17kts
24-Mar-14 17:47 34.056876 -117.590874 269 949ft 114kts
24-Mar-14 17:48 34.071772 -117.628300 66 2137ft 166kts
24-Mar-14 17:49 34.071907 -117.570479 121 2079ft 169kts
24-Mar-14 17:50 34.056905 -117.596734 270 949ft 134kts
24-Mar-14 17:51 34.075162 -117.611064 90 2490ft 199kts
24-Mar-14 17:52 34.073203 -117.554012 128 2230ft 171kts
24-Mar-14 17:53 34.056887 -117.578768 269 1006ft 139kts
24-Mar-14 17:54 34.061527 -117.631154 340 1609ft 222kts
24-Mar-14 17:55 34.073741 -117.578325 89 2319ft 167kts
24-Mar-14 17:56 34.056882 -117.584170 269 955ft 126kts
24-Mar-14 17:57 34.065925 -117.633378 1 1760ft 230kts
24-Mar-14 17:58 34.074300 -117.573854 90 2449ft 174kts
24-Mar-14 17:59 34.056849 -117.566248 269 1256ft 160kts
24-Mar-14 18:00 34.056792 -117.615929 268 1044ft 201kts
24-Mar-14 18:01 34.072963 -117.590916 88 2496ft 172kts
24-Mar-14 18:02 34.056922 -117.572581 266 1131ft 149kts
24-Mar-14 18:03 34.056876 -117.622958 275 1187ft 222kts
24-Mar-14 18:04 34.071623 -117.589566 89 2415ft 166kts
24-Mar-14 18:05 34.056884 -117.574774 270 1052ft 145kts
24-Mar-14 18:06 34.057132 -117.622430 287 1210ft 212kts
24-Mar-14 18:07 34.072828 -117.583820 91 2526ft 176kts
24-Mar-14 18:08 34.056908 -117.581739 270 993ft 144kts
24-Mar-14 18:09 34.062173 -117.632118 337 1684ft 214kts
24-Mar-14 18:10 34.076837 -117.583047 91 2316ft 162kts
24-Mar-14 18:11 34.056944 -117.573619 267 1172ft 155kts
24-Mar-14 18:12 34.057379 -117.624824 286 1200ft 209kts
24-Mar-14 18:13 34.101863 -117.601973 48 2496ft 256kts
24-Mar-14 18:14 34.150941 -117.530916 51 2634ft 291kts
24-Mar-14 18:15 34.210945 -117.443491 9 2627ft 427kts
24-Mar-14 18:16 34.284017 -117.330880 39 4050ft 481kts
24-Mar-14 18:17 34.345219 -117.189064 82 4239ft 460kts
24-Mar-14 18:18 34.383692 -117.051112 63 6202ft 423kts
24-Mar-14 18:19 34.404129 -117.071850 80 4741ft 391kts
24-Mar-14 18:20 34.403619 -116.982319 88 5261ft 395kts
24-Mar-14 18:21 34.353077 -116.852031 125 5102ft 467kts
24-Mar-14 18:22 34.249855 -116.809726 200 7681ft 476kts
24-Mar-14 18:23 34.154440 -116.754187 98 8297ft 513kts
24-Mar-14 18:24 34.127070 -116.579583 83 5270ft 562kts
24-Mar-14 18:25 34.124262 -116.421940 73 3823ft 536kts
24-Mar-14 18:26 34.149899 -116.410401 260 7863ft 208kts
24-Mar-14 18:27 34.132368 -116.465051 181 5386ft 173kts
24-Mar-14 18:28 34.124981 -116.420054 74 3355ft 147kts
24-Mar-14 18:29 34.129390 -116.400415 97 3229ft 11kts
24-Mar-14 18:30 34.129386 -116.398778 32 3229ft 0kts
24-Mar-14 18:31 34.129387 -116.398778 32 3229ft 0kts
24-Mar-14 18:32 34.129387 -116.398778 32 3229ft 0kts
24-Mar-14 18:33 34.129387 -116.398777 32 3229ft 0kts
24-Mar-14 18:34 34.129387 -116.398777 32 3229ft 0kts
24-Mar-14 18:35 34.129535 -116.398663 32 3229ft 8kts
24-Mar-14 18:36 34.126748 -116.412276 253 3248ft 138kts
24-Mar-14 18:37 34.125449 -116.471226 283 5486ft 194kts
24-Mar-14 18:38 34.139568 -116.538340 284 7454ft 206kts
24-Mar-14 18:39 34.154151 -116.607580 284 9604ft 218kts
24-Mar-14 18:40 34.167598 -116.668721 293 10811ft 261kts
24-Mar-14 18:41 34.207085 -116.741529 297 11883ft 257kts
24-Mar-14 18:42 34.230922 -116.825455 285 12341ft 276kts
24-Mar-14 18:43 34.251373 -116.936021 280 12513ft 299kts
24-Mar-14 18:44 34.266984 -117.038445 279 12503ft 318kts
24-Mar-14 18:45 34.279445 -117.127816 278 12486ft 330kts
24-Mar-14 18:46 34.292262 -117.236519 276 11938ft 319kts
24-Mar-14 18:47 34.289323 -117.339187 235 9492ft 287kts
24-Mar-14 18:48 34.232047 -117.396391 207 5081ft 230kts
24-Mar-14 18:49 34.187565 -117.447878 236 3564ft 216kts
24-Mar-14 18:50 34.156260 -117.509385 238 2547ft 210kts
24-Mar-14 18:51 34.144066 -117.574313 272 2647ft 200kts
24-Mar-14 18:52 34.110459 -117.607792 175 2689ft 224kts
24-Mar-14 18:53 34.054751 -117.606007 178 2548ft 179kts
24-Mar-14 18:54 34.030646 -117.567941 88 2610ft 179kts
24-Mar-14 18:55 34.030552 -117.506520 91 2648ft 185kts
24-Mar-14 18:56 34.054738 -117.501069 274 2335ft 175kts
24-Mar-14 18:57 34.054786 -117.552329 271 1413ft 138kts
24-Mar-14 18:58 34.054958 -117.595361 269 949ft 60kts
24-Mar-14 18:59 34.054349 -117.598308 137 949ft 0kts
24-Mar-14 19:00 34.053826 -117.597783 185 949ft 7kts
24-Mar-14 19:01 34.053678 -117.601443 270 949ft 14kts
24-Mar-14 19:02 34.052833 -117.601996 128 949ft 7kts
24-Mar-14 19:03 34.052226 -117.601478 88 949ft 0kts

Navigation Log

Ident Type
Flight plan parsing failed, navigation log unavailable